createdAt,value
2019-05-22T00:01:51.371Z,98566.00
2019-05-22T00:05:32.068Z,98559.49
2019-05-22T00:08:58.670Z,98561.45
2019-05-22T00:12:25.295Z,98562.91
2019-05-22T00:15:52.092Z,98558.92
2019-05-22T00:19:20.032Z,98566.62
2019-05-22T00:22:47.737Z,98569.64
2019-05-22T00:26:15.115Z,98573.05
2019-05-22T00:29:44.363Z,98567.47
2019-05-22T00:33:11.848Z,98570.44
2019-05-22T00:36:38.440Z,98567.74
2019-05-22T00:40:08.401Z,98571.15
2019-05-22T00:43:42.108Z,98572.96
2019-05-22T00:47:09.779Z,98569.74
2019-05-22T00:50:53.795Z,98571.11
2019-05-22T00:54:23.935Z,98576.91
2019-05-22T01:01:38.877Z,98579.64
2019-05-22T01:05:05.883Z,98584.11
2019-05-22T01:08:33.677Z,98586.09
2019-05-22T01:12:02.119Z,98596.95
2019-05-22T01:15:29.257Z,98597.31
2019-05-22T01:18:56.035Z,98592.91
2019-05-22T01:22:24.091Z,98587.83
2019-05-22T01:25:51.898Z,98586.98
2019-05-22T01:29:19.381Z,98595.76
2019-05-22T01:32:51.442Z,98591.45
2019-05-22T01:36:20.676Z,98593.26
2019-05-22T01:39:58.071Z,98596.14
2019-05-22T01:43:26.170Z,98604.96
2019-05-22T01:46:55.878Z,98602.46
2019-05-22T01:50:41.648Z,98607.42
2019-05-22T01:54:08.947Z,98606.94
2019-05-22T01:57:35.072Z,98608.02
2019-05-22T02:01:03.178Z,98602.48
2019-05-22T02:04:29.312Z,98603.66
2019-05-22T02:07:56.066Z,98609.20
2019-05-22T02:11:24.532Z,98605.23
2019-05-22T02:14:53.714Z,98605.23
2019-05-22T02:18:23.117Z,98606.94
2019-05-22T02:21:49.481Z,98616.80
2019-05-22T02:25:16.576Z,98609.59
2019-05-22T02:28:43.359Z,98604.42
2019-05-22T02:32:11.428Z,98608.75
2019-05-22T02:35:38.232Z,98610.94
2019-05-22T02:39:14.605Z,98616.56
2019-05-22T02:42:41.037Z,98615.84
2019-05-22T02:46:08.538Z,98616.25
2019-05-22T02:49:36.093Z,98615.72
2019-05-22T02:53:03.722Z,98622.34
2019-05-22T02:56:31.169Z,98615.36
2019-05-22T02:59:58.666Z,98616.13
2019-05-22T03:03:24.862Z,98618.02
2019-05-22T03:06:52.835Z,98623.06
2019-05-22T03:10:20.644Z,98617.00
2019-05-22T03:14:01.163Z,98622.05
2019-05-22T03:17:31.918Z,98620.20
2019-05-22T03:20:58.281Z,98627.91
2019-05-22T03:24:24.521Z,98622.33
2019-05-22T03:27:51.923Z,98631.67
2019-05-22T03:31:18.608Z,98634.31
2019-05-22T03:34:44.156Z,98623.64
2019-05-22T03:38:10.720Z,98625.05
2019-05-22T03:41:38.007Z,98632.08
2019-05-22T03:45:10.311Z,98639.75
2019-05-22T03:48:38.019Z,98641.50
2019-05-22T03:52:03.691Z,98642.15
2019-05-22T03:55:29.651Z,98639.84
2019-05-22T03:58:55.996Z,98639.64
2019-05-22T04:02:21.919Z,98643.38
2019-05-22T04:05:48.838Z,98641.45
2019-05-22T04:09:24.074Z,98635.87
2019-05-22T04:12:50.167Z,98639.40
2019-05-22T04:16:21.336Z,98645.65
2019-05-22T04:19:51.111Z,98641.52
2019-05-22T04:23:16.747Z,98641.34
2019-05-22T04:26:43.425Z,98647.70
2019-05-22T04:30:12.996Z,98649.01
2019-05-22T04:33:38.705Z,98653.77
2019-05-22T04:37:05.411Z,98654.36
2019-05-22T04:40:43.207Z,98657.00
2019-05-22T04:44:08.925Z,98665.14
2019-05-22T04:47:36.921Z,98664.47
2019-05-22T04:51:22.601Z,98670.26
2019-05-22T04:54:52.335Z,98666.58
2019-05-22T04:58:18.537Z,98670.42
2019-05-22T05:01:44.135Z,98668.73
2019-05-22T05:05:12.540Z,98668.73
2019-05-22T05:08:38.505Z,98671.74
2019-05-22T05:12:06.075Z,98671.57
2019-05-22T05:15:31.746Z,98668.56
2019-05-22T05:18:57.404Z,98670.73
2019-05-22T05:22:42.816Z,98670.39
2019-05-22T05:26:08.695Z,98672.97
2019-05-22T05:29:35.131Z,98664.02
2019-05-22T05:33:01.254Z,98669.49
2019-05-22T05:36:28.354Z,98672.13
2019-05-22T05:40:09.243Z,98669.46
2019-05-22T05:43:35.534Z,98672.52
2019-05-22T05:47:01.882Z,98666.97
2019-05-22T05:50:38.857Z,98674.39
2019-05-22T05:54:20.703Z,98674.27
2019-05-22T05:57:59.433Z,98670.59
2019-05-22T06:01:28.395Z,98676.20
2019-05-22T06:04:54.002Z,98674.47
2019-05-22T06:08:19.841Z,98675.98
2019-05-22T06:11:49.494Z,98681.71
2019-05-22T06:15:15.930Z,98677.41
2019-05-22T06:18:43.436Z,98684.89
2019-05-22T06:22:11.492Z,98689.83
2019-05-22T06:25:37.255Z,98686.79
2019-05-22T06:29:03.849Z,98686.45
2019-05-22T06:33:13.607Z,98683.48
2019-05-22T06:36:41.165Z,98697.06
2019-05-22T06:40:09.620Z,98698.40
2019-05-22T06:43:45.730Z,98701.81
2019-05-22T06:47:14.116Z,98699.96
2019-05-22T06:50:39.742Z,98698.55
2019-05-22T06:54:05.708Z,98701.31
2019-05-22T06:57:32.171Z,98700.95
2019-05-22T07:00:58.255Z,98708.96
2019-05-22T07:04:24.013Z,98712.29
2019-05-22T07:07:49.882Z,98711.46
2019-05-22T07:11:15.748Z,98707.52
2019-05-22T07:15:11.248Z,98707.78
2019-05-22T07:18:37.554Z,98706.80
2019-05-22T07:22:04.867Z,98711.14
2019-05-22T07:25:33.104Z,98711.11
2019-05-22T07:29:01.698Z,98707.24
2019-05-22T07:32:30.842Z,98711.64
2019-05-22T07:36:09.340Z,98701.45
2019-05-22T07:39:25.264Z,98711.94
2019-05-22T07:42:52.899Z,98715.43
2019-05-22T07:46:19.048Z,98714.05
2019-05-22T07:49:45.115Z,98707.33
2019-05-22T07:53:11.646Z,98711.14
2019-05-22T07:56:38.374Z,98711.18
2019-05-22T08:00:05.278Z,98714.66
2019-05-22T08:03:32.578Z,98710.74
2019-05-22T08:06:58.735Z,98714.86
2019-05-22T08:10:25.612Z,98715.13
2019-05-22T08:13:53.426Z,98717.61
2019-05-22T08:17:20.542Z,98713.19
2019-05-22T08:20:47.031Z,98711.73
2019-05-22T08:24:13.069Z,98713.17
2019-05-22T08:27:40.498Z,98712.91
2019-05-22T08:31:09.186Z,98717.58
2019-05-22T08:34:35.581Z,98714.44
2019-05-22T08:38:04.613Z,98717.64
2019-05-22T08:41:35.190Z,98724.27
2019-05-22T08:45:01.023Z,98723.85
2019-05-22T08:48:28.341Z,98725.66
2019-05-22T08:51:54.747Z,98721.62
2019-05-22T08:55:20.787Z,98717.80
2019-05-22T08:58:48.569Z,98716.61
2019-05-22T09:02:15.084Z,98717.62
2019-05-22T09:05:40.756Z,98710.02
2019-05-22T09:09:07.689Z,98713.25
2019-05-22T09:12:33.694Z,98714.33
2019-05-22T09:16:02.026Z,98718.60
2019-05-22T09:19:28.492Z,98724.53
2019-05-22T09:22:54.887Z,98720.52
2019-05-22T09:26:20.563Z,98715.72
2019-05-22T09:29:46.637Z,98722.98
2019-05-22T09:33:13.522Z,98723.37
2019-05-22T09:36:40.077Z,98718.02
2019-05-22T09:40:07.956Z,98722.95
2019-05-22T09:43:33.577Z,98721.14
2019-05-22T09:46:59.247Z,98717.78
2019-05-22T09:50:26.181Z,98719.49
2019-05-22T09:53:52.159Z,98727.50
2019-05-22T09:57:17.781Z,98734.20
2019-05-22T10:00:43.929Z,98722.48
2019-05-22T10:04:09.867Z,98726.52
2019-05-22T10:07:36.873Z,98722.86
2019-05-22T10:11:02.750Z,98725.20
2019-05-22T10:14:29.457Z,98721.35
2019-05-22T10:17:55.520Z,98722.84
2019-05-22T10:21:22.330Z,98722.54
2019-05-22T10:24:50.355Z,98722.69
2019-05-22T10:28:16.307Z,98715.16
2019-05-22T10:31:42.433Z,98709.95
2019-05-22T10:35:09.464Z,98720.49
2019-05-22T10:38:35.413Z,98711.27
2019-05-22T10:42:02.472Z,98712.13
2019-05-22T10:45:29.147Z,98707.38
2019-05-22T10:48:57.041Z,98708.33
2019-05-22T10:52:23.151Z,98710.31
2019-05-22T10:55:49.393Z,98702.98
2019-05-22T10:59:15.161Z,98706.37
2019-05-22T11:02:41.969Z,98702.09
2019-05-22T11:06:08.594Z,98695.05
2019-05-22T11:09:34.852Z,98694.64
2019-05-22T11:13:01.284Z,98701.20
2019-05-22T11:16:27.542Z,98702.76
2019-05-22T11:19:53.874Z,98700.45
2019-05-22T11:23:19.562Z,98701.22
2019-05-22T11:26:46.967Z,98692.11
2019-05-22T11:30:15.552Z,98702.71
2019-05-22T11:33:41.754Z,98700.57
2019-05-22T11:37:08.591Z,98694.96
2019-05-22T11:40:35.019Z,98694.78
2019-05-22T11:44:00.978Z,98692.03
2019-05-22T11:47:26.639Z,98697.58
2019-05-22T11:50:53.941Z,98701.02
2019-05-22T11:54:19.530Z,98693.01
2019-05-22T11:57:47.215Z,98691.98
2019-05-22T12:01:13.686Z,98688.64
2019-05-22T12:04:48.033Z,98691.03
2019-05-22T12:08:09.377Z,98697.47
2019-05-22T12:11:35.033Z,98687.18
2019-05-22T12:15:01.208Z,98683.56
2019-05-22T12:18:27.708Z,98682.59
2019-05-22T12:21:54.670Z,98682.94
2019-05-22T12:25:21.100Z,98673.88
2019-05-22T12:28:47.156Z,98676.78
2019-05-22T12:32:14.562Z,98679.14
2019-05-22T12:35:42.280Z,98677.66
2019-05-22T12:39:10.447Z,98688.89
2019-05-22T12:42:36.507Z,98690.61
2019-05-22T12:46:03.332Z,98683.47
2019-05-22T12:49:29.329Z,98683.93
2019-05-22T12:52:55.683Z,98677.83
2019-05-22T12:56:21.549Z,98672.41
2019-05-22T12:59:49.425Z,98677.88
2019-05-22T13:03:16.811Z,98671.70
2019-05-22T13:06:43.607Z,98663.96
2019-05-22T13:10:10.216Z,98657.17
2019-05-22T13:13:37.393Z,98660.09
2019-05-22T13:17:05.552Z,98665.97
2019-05-22T13:20:42.652Z,98656.95
2019-05-22T13:24:08.906Z,98650.36
2019-05-22T13:27:36.460Z,98658.64
2019-05-22T13:31:02.940Z,98675.30
2019-05-22T13:34:32.037Z,98669.28
2019-05-22T13:37:59.326Z,98667.08
2019-05-22T13:41:25.213Z,98669.98
2019-05-22T13:44:51.045Z,98668.89
2019-05-22T13:48:17.999Z,98653.47
2019-05-22T13:51:43.923Z,98656.98
2019-05-22T13:55:11.899Z,98659.59
2019-05-22T13:58:38.430Z,98665.27
2019-05-22T14:02:04.711Z,98666.52
2019-05-22T14:05:30.988Z,98654.66
2019-05-22T14:08:57.167Z,98654.34
2019-05-22T14:12:23.100Z,98644.09
2019-05-22T14:15:56.090Z,98652.84
2019-05-22T14:19:16.477Z,98645.20
2019-05-22T14:22:43.386Z,98657.05
2019-05-22T14:26:09.685Z,98664.09
2019-05-22T14:29:35.604Z,98657.40
2019-05-22T14:33:04.801Z,98659.39
2019-05-22T14:36:29.691Z,98661.72
2019-05-22T14:39:55.624Z,98669.36
2019-05-22T14:43:21.594Z,98666.84
2019-05-22T14:46:47.356Z,98664.12
2019-05-22T14:50:13.665Z,98662.53
2019-05-22T14:53:41.900Z,98673.74
2019-05-22T14:57:09.197Z,98670.52
2019-05-22T15:00:38.069Z,98668.81
2019-05-22T15:04:05.131Z,98670.16
2019-05-22T15:07:30.736Z,98663.42
2019-05-22T15:10:58.258Z,98663.80
2019-05-22T15:14:25.113Z,98667.06
2019-05-22T15:17:51.406Z,98675.45
2019-05-22T15:21:18.294Z,98664.64
2019-05-22T15:24:43.967Z,98669.51
2019-05-22T15:28:10.598Z,98669.26
2019-05-22T15:31:37.130Z,98665.12
2019-05-22T15:35:04.301Z,98662.56
2019-05-22T15:38:31.178Z,98665.44
2019-05-22T15:41:57.559Z,98656.11
2019-05-22T15:45:28.022Z,98651.77
2019-05-22T15:48:56.091Z,98656.11
2019-05-22T15:52:26.341Z,98662.02
2019-05-22T15:55:54.518Z,98660.55
2019-05-22T15:59:22.439Z,98663.66
2019-05-22T16:02:49.745Z,98651.66
2019-05-22T16:06:18.439Z,98651.21
2019-05-22T16:09:45.777Z,98643.83
2019-05-22T16:13:15.350Z,98643.12
2019-05-22T16:16:41.886Z,98641.39
2019-05-22T16:20:08.859Z,98638.90
2019-05-22T16:23:37.436Z,98641.12
2019-05-22T16:27:03.800Z,98633.39
2019-05-22T16:30:29.649Z,98640.80
2019-05-22T16:33:56.237Z,98642.69
2019-05-22T16:37:22.851Z,98642.29
2019-05-22T16:40:48.763Z,98639.25
2019-05-22T16:44:15.390Z,98642.72
2019-05-22T16:47:42.781Z,98640.94
2019-05-22T16:51:14.988Z,98644.54
2019-05-22T16:54:42.894Z,98639.55
2019-05-22T16:58:09.296Z,98640.39
2019-05-22T17:01:56.772Z,98641.22
2019-05-22T17:05:05.953Z,98641.44
2019-05-22T17:08:33.065Z,98637.48
2019-05-22T17:11:58.910Z,98629.36
2019-05-22T17:15:24.742Z,98633.05
2019-05-22T17:18:50.349Z,98622.58
2019-05-22T17:22:17.567Z,98624.44
2019-05-22T17:25:45.245Z,98625.12
2019-05-22T17:29:12.458Z,98626.48
2019-05-22T17:32:38.468Z,98622.33
2019-05-22T17:36:05.833Z,98631.73
2019-05-22T17:39:34.614Z,98625.81
2019-05-22T17:43:02.308Z,98628.02
2019-05-22T17:46:30.308Z,98630.42
2019-05-22T17:49:56.894Z,98632.31
2019-05-22T17:53:23.212Z,98630.97
2019-05-22T17:56:49.376Z,98626.76
2019-05-22T18:00:20.153Z,98633.91
2019-05-22T18:03:46.035Z,98635.27
2019-05-22T18:07:12.597Z,98625.89
2019-05-22T18:10:41.052Z,98631.61
2019-05-22T18:14:08.369Z,98633.00
2019-05-22T18:17:34.635Z,98633.52
2019-05-22T18:21:00.740Z,98635.05
2019-05-22T18:24:26.634Z,98637.08
2019-05-22T18:27:52.445Z,98639.20
2019-05-22T18:31:18.248Z,98638.91
2019-05-22T18:34:43.838Z,98635.87
2019-05-22T18:38:09.548Z,98642.88
2019-05-22T18:41:35.151Z,98647.88
2019-05-22T18:45:00.774Z,98650.83
2019-05-22T18:48:27.072Z,98649.80
2019-05-22T18:51:52.913Z,98646.66
2019-05-22T18:55:19.035Z,98650.95
2019-05-22T18:58:45.106Z,98646.16
2019-05-22T19:02:10.874Z,98645.27
2019-05-22T19:05:37.798Z,98646.45
2019-05-22T19:09:04.835Z,98649.24
2019-05-22T19:12:31.060Z,98652.28
2019-05-22T19:15:57.800Z,98653.70
2019-05-22T19:19:24.833Z,98655.10
2019-05-22T19:23:00.360Z,98659.70
2019-05-22T19:26:18.990Z,98661.17
2019-05-22T19:29:44.591Z,98667.77
2019-05-22T19:33:14.937Z,98663.92
2019-05-22T19:36:39.909Z,98671.71
2019-05-22T19:40:08.312Z,98677.09
2019-05-22T19:43:34.791Z,98679.16
2019-05-22T19:47:00.681Z,98683.08
2019-05-22T19:50:29.099Z,98687.02
2019-05-22T19:53:54.890Z,98694.87
2019-05-22T19:57:20.916Z,98703.08
2019-05-22T20:00:47.156Z,98699.50
2019-05-22T20:04:15.305Z,98711.71
2019-05-22T20:07:41.510Z,98710.69
2019-05-22T20:11:07.547Z,98713.96
2019-05-22T20:14:33.538Z,98713.89
2019-05-22T20:18:00.397Z,98716.11
2019-05-22T20:21:26.561Z,98718.17
2019-05-22T20:24:52.220Z,98716.94
2019-05-22T20:28:18.733Z,98715.42
2019-05-22T20:31:44.323Z,98722.67
2019-05-22T20:35:12.038Z,98724.72
2019-05-22T20:38:38.515Z,98731.17
2019-05-22T20:42:07.150Z,98725.17
2019-05-22T20:45:33.484Z,98734.22
2019-05-22T20:49:00.833Z,98741.63
2019-05-22T20:52:30.256Z,98736.80
2019-05-22T20:55:57.829Z,98739.28
2019-05-22T20:59:24.464Z,98741.83
2019-05-22T21:02:53.591Z,98741.99
2019-05-22T21:06:22.325Z,98746.34
2019-05-22T21:09:47.998Z,98739.28
2019-05-22T21:13:18.721Z,98739.95
2019-05-22T21:16:45.065Z,98741.11
2019-05-22T21:20:14.587Z,98739.33
2019-05-22T21:23:41.950Z,98741.08
2019-05-22T21:27:09.652Z,98735.72
2019-05-22T21:30:36.218Z,98739.11
2019-05-22T21:34:02.313Z,98736.11
2019-05-22T21:37:27.914Z,98741.41
2019-05-22T21:40:56.664Z,98745.02
2019-05-22T21:44:23.798Z,98743.35
2019-05-22T21:47:50.489Z,98741.53
2019-05-22T21:51:16.705Z,98740.36
2019-05-22T21:54:43.117Z,98745.34
2019-05-22T21:58:09.732Z,98738.48
2019-05-22T22:01:37.398Z,98736.60
2019-05-22T22:05:04.132Z,98732.03
2019-05-22T22:08:30.843Z,98731.09
2019-05-22T22:11:57.167Z,98735.20
2019-05-22T22:15:24.387Z,98732.11
2019-05-22T22:18:50.265Z,98728.84
2019-05-22T22:22:22.849Z,98733.39
2019-05-22T22:25:49.212Z,98735.37
2019-05-22T22:29:15.134Z,98731.97
2019-05-22T22:32:43.163Z,98734.06
2019-05-22T22:36:09.854Z,98733.44
2019-05-22T22:39:36.599Z,98739.16
2019-05-22T22:43:06.283Z,98743.31
2019-05-22T22:46:46.977Z,98739.19
2019-05-22T22:50:13.946Z,98732.22
2019-05-22T22:53:39.890Z,98740.45
2019-05-22T22:57:07.123Z,98739.27
2019-05-22T23:00:35.455Z,98745.11
2019-05-22T23:04:04.497Z,98747.13
2019-05-22T23:07:33.119Z,98745.34
2019-05-22T23:11:00.063Z,98749.11
2019-05-22T23:14:27.685Z,98750.27
2019-05-22T23:17:54.189Z,98749.39
2019-05-22T23:21:18.590Z,98742.71
2019-05-22T23:24:46.525Z,98753.36
2019-05-22T23:28:13.446Z,98746.39
2019-05-22T23:31:40.346Z,98737.57
2019-05-22T23:35:09.015Z,98740.41
2019-05-22T23:38:34.839Z,98753.80
2019-05-22T23:42:05.062Z,98751.89
2019-05-22T23:45:31.001Z,98747.16
2019-05-22T23:48:59.562Z,98747.16
2019-05-22T23:52:26.627Z,98746.27
2019-05-22T23:55:54.120Z,98747.77
2019-05-22T23:59:20.341Z,98748.33
